Time;durP1;ratioP1;P1;durP2;ratioP2;P2;SDS_P1;SDS_P2;PMS_P1;PMS_P2;Temp;Humidity;BMP_temperature;BMP_pressure;BME280_temperature;BME280_humidity;BME280_pressure;Samples;Min_cycle;Max_cycle;Signal;HPM_P1;HPM_P2
2021/11/21 00:16:04;;;;;;;54.80;25.90;;;;;;;5.63;100.00;97503.44;4949474;28;20054;-81
2021/11/21 00:18:32;;;;;;;55.75;26.92;;;;;;;5.60;100.00;97506.72;4934366;29;20055;-85
2021/11/21 00:21:00;;;;;;;55.05;26.83;;;;;;;5.50;100.00;97472.72;4958146;29;20079;-85
2021/11/21 00:23:27;;;;;;;55.38;27.10;;;;;;;5.56;100.00;97497.63;4953911;28;20070;-85
2021/11/21 00:28:30;;;;;;;48.58;24.35;;;;;;;5.56;100.00;97476.13;4981937;28;20069;-85
2021/11/21 00:30:57;;;;;;;55.72;26.08;;;;;;;5.53;100.00;97487.44;4982669;28;20047;-85
2021/11/21 00:33:24;;;;;;;52.05;25.30;;;;;;;5.52;100.00;97475.91;4987345;28;20102;-85
2021/11/21 00:35:51;;;;;;;56.17;26.67;;;;;;;5.62;100.00;97472.31;5001648;28;20069;-87
2021/11/21 00:38:18;;;;;;;56.65;25.65;;;;;;;5.66;100.00;97476.81;4972677;28;20047;-85
2021/11/21 00:40:46;;;;;;;55.55;25.60;;;;;;;5.79;100.00;97478.00;4973565;28;20050;-87
2021/11/21 00:43:12;;;;;;;53.50;26.20;;;;;;;5.63;100.00;97472.03;4977465;28;20058;-84
2021/11/21 00:45:40;;;;;;;49.38;25.15;;;;;;;5.47;100.00;97440.28;4969535;29;20058;-85
2021/11/21 00:48:12;;;;;;;50.53;25.77;;;;;;;5.61;100.00;97473.41;4970420;28;20055;-86
2021/11/21 00:50:40;;;;;;;55.65;25.67;;;;;;;5.68;100.00;97474.63;4969795;28;20062;-87
2021/11/21 00:53:07;;;;;;;59.08;27.00;;;;;;;5.57;100.00;97450.91;4969002;29;20051;-85
2021/11/21 00:55:39;;;;;;;54.55;26.17;;;;;;;5.76;100.00;97453.59;4968867;29;20069;-84
2021/11/21 00:58:10;;;;;;;53.53;26.08;;;;;;;5.88;100.00;97460.22;4954041;29;20047;-86
2021/11/21 01:00:43;;;;;;;52.08;25.75;;;;;;;5.85;100.00;97441.97;4955594;29;20066;-85
2021/11/21 01:03:16;;;;;;;52.58;25.42;;;;;;;6.01;100.00;97453.31;4951285;28;20090;-84
2021/11/21 01:05:45;;;;;;;49.55;24.35;;;;;;;5.92;100.00;97447.78;4966893;28;20244;-85
2021/11/21 01:08:12;;;;;;;48.42;24.67;;;;;;;6.09;100.00;97456.13;4982556;28;20043;-85
2021/11/21 02:00:30;;;;;;;58.40;26.52;;;;;;;6.07;100.00;97407.25;4962078;29;20047;-87
2021/11/21 02:02:57;;;;;;;55.25;27.23;;;;;;;6.06;100.00;97397.63;4960995;29;20066;-88
2021/11/21 02:05:25;;;;;;;54.90;26.73;;;;;;;5.99;100.00;97381.06;4961622;28;20110;-88
2021/11/21 02:07:55;;;;;;;54.50;27.20;;;;;;;5.92;100.00;97390.56;4960155;28;20124;-87
2021/11/21 02:10:27;;;;;;;54.05;26.58;;;;;;;5.99;100.00;97393.69;4960111;29;20055;-86
2021/11/21 02:20:55;;;;;;;53.05;26.95;;;;;;;6.01;100.00;97396.91;4962141;29;20531;-86
2021/11/21 02:23:24;;;;;;;56.95;28.00;;;;;;;5.97;100.00;97402.03;4956405;29;20131;-84
2021/11/21 02:25:51;;;;;;;56.22;26.95;;;;;;;6.05;100.00;97387.16;4955781;29;20059;-87
2021/11/21 02:28:18;;;;;;;60.80;27.98;;;;;;;6.02;100.00;97395.78;4940080;29;20055;-85
2021/11/21 02:30:45;;;;;;;57.75;28.35;;;;;;;5.99;100.00;97391.78;4952658;29;20083;-85
2021/11/21 02:33:15;;;;;;;65.00;28.17;;;;;;;5.93;100.00;97378.75;4958570;28;20066;-85
2021/11/21 02:35:47;;;;;;;62.55;28.70;;;;;;;5.97;100.00;97379.75;4959217;29;20075;-86
2021/11/21 02:38:17;;;;;;;61.70;29.17;;;;;;;5.81;100.00;97357.66;4942649;29;20054;-87
2021/11/21 02:40:47;;;;;;;59.97;28.40;;;;;;;5.80;100.00;97357.94;4941546;29;20508;-85
2021/11/21 02:43:16;;;;;;;64.05;28.77;;;;;;;5.94;100.00;97365.00;4959101;28;20051;-85
2021/11/21 02:45:45;;;;;;;64.95;29.33;;;;;;;5.68;100.00;97361.06;4959399;29;20146;-85
2021/11/21 02:48:13;;;;;;;64.10;28.75;;;;;;;5.64;100.00;97331.31;4959523;29;20140;-85
2021/11/21 02:50:40;;;;;;;64.18;30.00;;;;;;;5.76;100.00;97357.72;4942635;29;20078;-84
2021/11/21 02:53:07;;;;;;;64.38;28.67;;;;;;;5.79;100.00;97361.72;4961683;28;20449;-86
2021/11/21 02:55:34;;;;;;;63.13;29.90;;;;;;;5.68;100.00;97369.09;4948207;29;20051;-86
2021/11/21 02:58:02;;;;;;;66.15;29.92;;;;;;;5.61;100.00;97349.88;4944404;29;20475;-85
2021/11/21 03:00:30;;;;;;;62.35;29.15;;;;;;;5.68;100.00;97361.06;4961081;29;20496;-86
2021/11/21 03:02:57;;;;;;;63.47;30.70;;;;;;;5.61;100.00;97360.63;4960317;28;20101;-85
2021/11/21 03:05:24;;;;;;;64.22;30.25;;;;;;;5.60;100.00;97348.31;4960391;28;20066;-86
2021/11/21 03:07:51;;;;;;;62.60;29.38;;;;;;;5.64;100.00;97346.63;4943899;29;20059;-86
2021/11/21 03:10:19;;;;;;;62.72;29.58;;;;;;;5.58;100.00;97340.53;4942538;29;20051;-86
2021/11/21 03:12:49;;;;;;;62.80;29.05;;;;;;;5.55;100.00;97327.66;4960229;28;20055;-86
2021/11/21 03:15:17;;;;;;;61.70;29.85;;;;;;;5.52;100.00;97330.16;4943279;29;20114;-86
2021/11/21 03:17:44;;;;;;;61.35;29.67;;;;;;;5.48;100.00;97318.38;4960052;28;20062;-85
2021/11/21 03:20:13;;;;;;;61.20;29.25;;;;;;;5.55;100.00;97335.72;4942417;29;20055;-85
2021/11/21 03:22:41;;;;;;;64.90;29.55;;;;;;;5.59;100.00;97333.28;4960301;28;20087;-86
2021/11/21 03:25:09;;;;;;;60.15;28.83;;;;;;;5.58;100.00;97345.88;4960616;29;20492;-86
2021/11/21 03:27:36;;;;;;;62.45;29.63;;;;;;;5.59;100.00;97342.13;4943447;29;20479;-88
2021/11/21 03:30:06;;;;;;;62.85;29.30;;;;;;;5.50;100.00;97321.56;4942912;29;20067;-85
2021/11/21 03:32:33;;;;;;;57.58;27.73;;;;;;;5.55;100.00;97341.09;4944026;29;20113;-87
2021/11/21 03:34:59;;;;;;;57.35;28.25;;;;;;;5.47;100.00;97316.81;4943016;29;20055;-86
2021/11/21 03:37:26;;;;;;;57.80;28.58;;;;;;;5.48;100.00;97326.44;4942787;29;20051;-85
2021/11/21 03:39:53;;;;;;;61.58;28.30;;;;;;;5.44;100.00;97328.91;4973106;28;20051;-85
2021/11/21 03:42:20;;;;;;;59.03;28.15;;;;;;;5.49;100.00;97328.84;4968622;28;20043;-87
2021/11/21 03:44:46;;;;;;;59.47;28.83;;;;;;;5.52;100.00;97324.78;4939840;29;20491;-85
2021/11/21 03:47:13;;;;;;;57.88;27.98;;;;;;;5.48;100.00;97329.13;4956053;29;20059;-86
2021/11/21 03:49:40;;;;;;;64.97;29.52;;;;;;;5.46;100.00;97317.88;4956468;29;20050;-85
2021/11/21 03:52:07;;;;;;;56.42;27.70;;;;;;;5.39;100.00;97310.19;4939365;29;20051;-87
2021/11/21 03:54:34;;;;;;;58.05;27.35;;;;;;;5.41;100.00;97318.75;4944179;29;20118;-85
2021/11/21 03:57:01;;;;;;;54.40;26.75;;;;;;;5.48;100.00;97315.69;4945579;29;20106;-86
2021/11/21 03:59:28;;;;;;;61.08;28.02;;;;;;;5.37;100.00;97317.72;4947870;29;20496;-85
2021/11/21 04:01:58;;;;;;;55.58;27.98;;;;;;;5.35;100.00;97308.34;4923043;29;20420;-85
2021/11/21 04:04:26;;;;;;;55.13;27.02;;;;;;;5.42;100.00;97322.25;4920170;29;20051;-85
2021/11/21 04:06:53;;;;;;;54.97;26.40;;;;;;;5.41;100.00;97305.34;4935675;29;20048;-83
2021/11/21 04:09:20;;;;;;;56.67;26.73;;;;;;;5.49;100.00;97309.25;4936707;29;20086;-85
2021/11/21 04:11:47;;;;;;;54.47;25.98;;;;;;;5.38;100.00;97287.13;4928986;29;20051;-87
2021/11/21 04:14:14;;;;;;;53.67;25.98;;;;;;;5.61;100.00;97310.41;4943615;29;20051;-87
2021/11/21 04:16:41;;;;;;;51.53;25.98;;;;;;;5.47;100.00;97285.38;4937065;29;20059;-86
2021/11/21 04:19:09;;;;;;;52.22;25.58;;;;;;;5.45;100.00;97284.88;4948997;29;20047;-87
2021/11/21 04:21:36;;;;;;;56.05;26.85;;;;;;;5.44;100.00;97299.38;4961043;29;20411;-86
2021/11/21 04:24:05;;;;;;;50.45;25.25;;;;;;;5.50;100.00;97300.09;4940659;29;20051;-85
2021/11/21 04:26:32;;;;;;;52.50;26.40;;;;;;;5.55;100.00;97295.44;4937225;29;20098;-85
2021/11/21 04:28:59;;;;;;;56.63;25.20;;;;;;;5.51;100.00;97301.69;4937004;29;20093;-84
2021/11/21 04:31:25;;;;;;;53.33;25.38;;;;;;;5.52;100.00;97282.59;4954078;29;20055;-85
2021/11/21 04:33:52;;;;;;;53.10;25.42;;;;;;;5.42;100.00;97276.63;4937140;29;20086;-84
2021/11/21 04:36:19;;;;;;;50.15;25.30;;;;;;;5.46;100.00;97275.72;4955651;29;20051;-84
2021/11/21 04:38:46;;;;;;;52.25;25.92;;;;;;;5.20;100.00;97236.91;4963245;29;20555;-87
2021/11/21 04:41:13;;;;;;;52.38;25.67;;;;;;;5.39;100.00;97264.56;4938679;29;20055;-84
2021/11/21 04:43:39;;;;;;;51.28;26.00;;;;;;;5.34;100.00;97248.50;4937320;29;20055;-86
2021/11/21 04:46:06;;;;;;;54.67;25.60;;;;;;;5.52;100.00;97253.06;4956848;29;20102;-87
2021/11/21 04:48:33;;;;;;;56.55;26.80;;;;;;;5.45;100.00;97260.69;4942474;29;20271;-86
2021/11/21 04:50:59;;;;;;;55.28;26.48;;;;;;;5.41;100.00;97240.91;4940467;29;20051;-86
2021/11/21 04:53:26;;;;;;;53.42;26.73;;;;;;;5.46;100.00;97265.00;4956527;29;20192;-85
2021/11/21 04:55:53;;;;;;;55.67;27.13;;;;;;;5.41;100.00;97237.44;4954932;28;20108;-85
2021/11/21 04:58:19;;;;;;;54.40;27.85;;;;;;;5.61;100.00;97256.72;4955685;29;20098;-85
2021/11/21 05:00:46;;;;;;;55.72;27.80;;;;;;;5.56;100.00;97237.19;4935499;28;20062;-84
2021/11/21 05:03:13;;;;;;;55.88;27.08;;;;;;;5.41;100.00;97227.50;4943949;29;20031;-85
2021/11/21 05:05:40;;;;;;;54.15;27.95;;;;;;;5.43;100.00;97219.13;4937618;29;20612;-85
2021/11/21 05:08:07;;;;;;;62.67;29.65;;;;;;;5.38;100.00;97225.38;4936693;29;20047;-86
2021/11/21 05:10:34;;;;;;;61.92;29.27;;;;;;;5.61;100.00;97248.66;4953921;29;20043;-86
2021/11/21 05:13:00;;;;;;;56.10;26.88;;;;;;;5.59;100.00;97250.03;4961746;29;20051;-84
2021/11/21 05:15:34;;;;;;;62.78;28.83;;;;;;;5.60;100.00;97246.28;4951199;29;20051;-84
2021/11/21 05:18:00;;;;;;;59.20;27.58;;;;;;;5.65;100.00;97251.56;4950296;29;20055;-85
2021/11/21 05:20:27;;;;;;;56.33;26.10;;;;;;;5.53;100.00;97224.34;4920084;29;20071;-86
2021/11/21 05:22:54;;;;;;;53.88;25.92;;;;;;;5.54;100.00;97244.75;4919490;29;20051;-84
2021/11/21 05:25:21;;;;;;;59.03;28.10;;;;;;;5.50;100.00;97227.63;4923176;29;20123;-86
2021/11/21 05:27:47;;;;;;;53.53;25.73;;;;;;;5.43;100.00;97225.31;4948111;28;20102;-85
2021/11/21 05:30:18;;;;;;;54.25;25.40;;;;;;;5.59;100.00;97244.66;4922946;29;20047;-83
2021/11/21 05:32:45;;;;;;;53.58;26.10;;;;;;;5.68;100.00;97246.38;4918740;29;20055;-87
2021/11/21 05:35:13;;;;;;;53.33;26.40;;;;;;;5.65;100.00;97238.13;4920247;29;20086;-86
2021/11/21 05:37:40;;;;;;;54.85;26.40;;;;;;;5.61;100.00;97235.22;4921475;29;20063;-87
2021/11/21 05:40:09;;;;;;;52.35;25.35;;;;;;;5.68;100.00;97227.59;4936174;29;20495;-84
2021/11/21 05:42:35;;;;;;;51.22;24.58;;;;;;;5.75;100.00;97235.28;4941736;29;20043;-87
2021/11/21 05:45:04;;;;;;;55.22;25.67;;;;;;;5.53;100.00;97202.88;4935096;29;20048;-87
2021/11/21 05:47:31;;;;;;;49.53;24.90;;;;;;;5.76;100.00;97233.38;4934905;29;20050;-86
2021/11/21 05:49:59;;;;;;;50.97;25.85;;;;;;;5.79;100.00;97232.78;4923527;29;20064;-86
2021/11/21 05:52:26;;;;;;;53.60;26.23;;;;;;;5.83;100.00;97231.13;4918215;29;20102;-85
2021/11/21 05:54:53;;;;;;;50.85;25.05;;;;;;;5.79;100.00;97227.41;4918923;29;20055;-85
2021/11/21 05:57:20;;;;;;;52.95;25.45;;;;;;;5.76;100.00;97218.06;4934341;29;20424;-87
2021/11/21 05:59:47;;;;;;;49.65;24.05;;;;;;;5.90;100.00;97221.63;4916997;29;20044;-85
2021/11/21 06:02:14;;;;;;;48.40;24.25;;;;;;;5.71;100.00;97222.72;4923906;29;20044;-87
2021/11/21 06:04:41;;;;;;;55.47;25.42;;;;;;;5.73;100.00;97229.38;4918548;29;20051;-86
2021/11/21 06:07:09;;;;;;;55.25;25.30;;;;;;;5.68;100.00;97227.59;4917174;29;20059;-85
2021/11/21 06:09:36;;;;;;;50.17;24.48;;;;;;;5.78;100.00;97223.94;4919298;29;20056;-85
2021/11/21 06:12:03;;;;;;;54.28;24.95;;;;;;;5.80;100.00;97219.09;4935382;29;20389;-87
2021/11/21 06:14:31;;;;;;;50.25;25.17;;;;;;;5.52;100.00;97193.25;4919609;29;20051;-85
2021/11/21 06:16:59;;;;;;;53.00;24.52;;;;;;;5.65;100.00;97222.03;4938069;29;20055;-88
2021/11/21 06:19:26;;;;;;;56.03;26.10;;;;;;;5.83;100.00;97220.41;4918898;29;20051;-86
2021/11/21 06:21:53;;;;;;;50.85;24.40;;;;;;;5.90;100.00;97221.63;4918248;29;20118;-87
2021/11/21 06:24:20;;;;;;;54.25;24.73;;;;;;;5.83;100.00;97223.88;4939068;29;20104;-87
2021/11/21 06:26:47;;;;;;;51.38;25.63;;;;;;;5.65;100.00;97195.19;4928494;29;20059;-88
2021/11/21 06:29:13;;;;;;;53.30;24.25;;;;;;;5.79;100.00;97228.22;4938227;29;20432;-88
2021/11/21 06:31:40;;;;;;;53.53;24.52;;;;;;;5.62;100.00;97211.88;4938469;29;20059;-87
2021/11/21 06:34:07;;;;;;;53.00;25.40;;;;;;;5.67;100.00;97214.47;4938101;29;20052;-86
2021/11/21 06:36:36;;;;;;;51.63;24.40;;;;;;;5.64;100.00;97212.38;4937934;29;20068;-87
2021/11/21 06:39:03;;;;;;;55.13;25.33;;;;;;;5.61;100.00;97203.00;4931048;29;20110;-87
2021/11/21 06:41:30;;;;;;;55.03;26.33;;;;;;;5.62;100.00;97209.19;4929894;29;20080;-83
2021/11/21 06:43:57;;;;;;;52.03;24.10;;;;;;;5.73;100.00;97217.88;4943751;29;20055;-85
2021/11/21 06:46:23;;;;;;;57.30;26.02;;;;;;;5.73;100.00;97215.97;4938049;29;20087;-88
2021/11/21 06:48:50;;;;;;;53.20;25.00;;;;;;;5.59;100.00;97201.72;4936408;29;20055;-86
2021/11/21 06:51:17;;;;;;;53.42;26.23;;;;;;;5.50;100.00;97187.34;4941283;29;20051;-88
2021/11/21 06:53:47;;;;;;;61.08;27.38;;;;;;;5.54;100.00;97178.44;4944137;29;20066;-87
2021/11/21 06:56:15;;;;;;;56.38;26.10;;;;;;;5.51;100.00;97179.00;4943436;29;20051;-89
2021/11/21 06:58:46;;;;;;;58.67;25.90;;;;;;;5.61;100.00;97186.09;4943435;29;20097;-89
2021/11/21 07:01:13;;;;;;;55.97;25.90;;;;;;;5.77;100.00;97198.19;4942656;29;20147;-89
2021/11/21 07:03:40;;;;;;;52.00;24.15;;;;;;;5.77;100.00;97183.97;4944889;29;20115;-89
2021/11/21 07:06:07;;;;;;;52.72;24.98;;;;;;;5.73;100.00;97185.66;4948724;29;20491;-86
2021/11/21 07:08:34;;;;;;;53.40;25.30;;;;;;;5.89;100.00;97211.97;4965935;28;20047;-85
2021/11/21 07:11:01;;;;;;;57.45;26.42;;;;;;;5.67;100.00;97168.81;4950570;29;20044;-86
2021/11/21 07:13:27;;;;;;;52.20;24.05;;;;;;;5.76;100.00;97185.84;4921333;29;20376;-87
2021/11/21 07:15:54;;;;;;;52.95;23.65;;;;;;;5.79;100.00;97203.25;4930270;29;20048;-86
2021/11/21 07:18:21;;;;;;;58.58;25.27;;;;;;;5.78;100.00;97177.50;4945598;28;20067;-86
2021/11/21 07:20:47;;;;;;;55.03;25.35;;;;;;;5.90;100.00;97202.84;4926958;29;20043;-86
2021/11/21 07:23:19;;;;;;;53.00;25.10;;;;;;;5.97;100.00;97205.13;4917777;29;20130;-85
2021/11/21 07:25:46;;;;;;;56.80;26.25;;;;;;;5.91;100.00;97203.63;4930020;29;20550;-85
2021/11/21 07:28:12;;;;;;;60.55;26.63;;;;;;;5.90;100.00;97200.16;4934701;29;20090;-85
2021/11/21 07:30:39;;;;;;;60.47;26.65;;;;;;;5.99;100.00;97211.00;4935752;29;20054;-82
2021/11/21 07:33:06;;;;;;;54.80;25.00;;;;;;;6.00;100.00;97197.28;4953346;29;20477;-83
2021/11/21 07:35:32;;;;;;;56.97;25.70;;;;;;;6.00;100.00;97208.03;4954437;29;20059;-84
2021/11/21 07:37:59;;;;;;;52.15;24.02;;;;;;;6.02;100.00;97210.41;4949896;29;20054;-84
2021/11/21 07:40:25;;;;;;;54.97;25.13;;;;;;;5.85;100.00;97199.44;4934124;29;20047;-84
2021/11/21 07:42:53;;;;;;;56.30;25.75;;;;;;;6.02;100.00;97221.94;4949416;29;20704;-83
2021/11/21 07:45:20;;;;;;;55.45;25.38;;;;;;;5.98;100.00;97220.16;4929072;29;20404;-84
2021/11/21 07:47:46;;;;;;;57.63;25.33;;;;;;;5.98;100.00;97210.22;4939966;29;20051;-84
2021/11/21 07:50:14;;;;;;;54.85;25.23;;;;;;;5.96;100.00;97217.75;4960139;28;20058;-86
2021/11/21 07:52:42;;;;;;;54.53;24.42;;;;;;;5.96;100.00;97225.81;4934446;29;20048;-86
2021/11/21 07:55:09;;;;;;;54.45;24.52;;;;;;;5.94;100.00;97217.25;4932907;29;20571;-87
2021/11/21 07:57:36;;;;;;;55.90;24.90;;;;;;;5.76;100.00;97203.84;4930360;29;20110;-86
2021/11/21 08:00:06;;;;;;;55.60;25.38;;;;;;;5.96;100.00;97222.34;4922957;29;20071;-86
2021/11/21 08:02:33;;;;;;;57.40;25.98;;;;;;;5.91;100.00;97227.81;4926870;29;20130;-86
2021/11/21 08:05:00;;;;;;;53.58;24.15;;;;;;;5.92;100.00;97222.13;4937069;29;20055;-84
2021/11/21 08:07:30;;;;;;;51.00;23.98;;;;;;;5.85;100.00;97219.03;4945069;29;20575;-84
2021/11/21 08:09:57;;;;;;;53.38;25.13;;;;;;;5.88;100.00;97228.41;4946681;29;20055;-86
2021/11/21 08:12:23;;;;;;;55.63;24.50;;;;;;;6.09;100.00;97235.78;4915056;29;20682;-87
2021/11/21 08:14:50;;;;;;;49.55;23.20;;;;;;;6.05;100.00;97223.25;4936403;29;20083;-85
2021/11/21 08:17:19;;;;;;;50.28;23.52;;;;;;;5.97;100.00;97231.97;4917373;29;20240;-87
2021/11/21 08:22:20;;;;;;;47.92;22.23;;;;;;;6.15;100.00;97229.25;4924702;29;20043;-78
2021/11/21 08:24:47;;;;;;;49.20;21.60;;;;;;;6.05;100.00;97226.75;4928022;29;20507;-82
2021/11/21 08:27:14;;;;;;;47.35;23.25;;;;;;;6.20;100.00;97226.47;4928577;29;20086;-82
2021/11/21 08:29:41;;;;;;;46.47;23.15;;;;;;;6.14;100.00;97218.81;4922020;29;20384;-81
2021/11/21 08:32:08;;;;;;;46.60;22.75;;;;;;;6.17;100.00;97229.75;4911624;29;20052;-82
2021/11/21 08:34:35;;;;;;;49.63;23.02;;;;;;;6.03;100.00;97228.13;4891072;29;20148;-81
2021/11/21 08:37:02;;;;;;;46.40;23.15;;;;;;;6.13;100.00;97223.38;4888970;29;20080;-82
2021/11/21 08:39:29;;;;;;;51.22;23.85;;;;;;;6.17;100.00;97219.00;4890807;29;20076;-81
2021/11/21 08:41:56;;;;;;;46.75;22.55;;;;;;;6.11;100.00;97227.44;4904672;29;20128;-81
2021/11/21 08:44:23;;;;;;;45.83;22.33;;;;;;;6.11;100.00;97214.81;4903314;29;20148;-81
2021/11/21 08:46:50;;;;;;;49.72;23.30;;;;;;;6.10;100.00;97228.53;4907773;29;20292;-79
2021/11/21 08:49:17;;;;;;;48.47;23.92;;;;;;;6.10;100.00;97220.47;4897887;29;20389;-81
2021/11/21 08:51:45;;;;;;;50.58;23.08;;;;;;;6.19;100.00;97224.84;4889858;29;20197;-80
2021/11/21 08:54:12;;;;;;;48.45;23.52;;;;;;;6.26;100.00;97217.22;4890090;29;20060;-79
2021/11/21 08:56:39;;;;;;;49.58;23.92;;;;;;;6.12;100.00;97218.28;4894619;29;20056;-81
2021/11/21 08:59:06;;;;;;;46.00;22.90;;;;;;;6.23;100.00;97198.19;4914099;29;20112;-80
2021/11/21 09:01:33;;;;;;;46.72;22.33;;;;;;;6.23;100.00;97204.38;4905933;29;20064;-78
2021/11/21 09:04:01;;;;;;;47.05;21.77;;;;;;;6.19;100.00;97199.91;4915429;29;20285;-81
2021/11/21 09:06:27;;;;;;;44.85;22.10;;;;;;;6.30;100.00;97190.53;4917254;29;20051;-82
2021/11/21 09:08:56;;;;;;;40.80;20.05;;;;;;;6.34;100.00;97196.94;4907378;29;20457;-81
2021/11/21 09:11:23;;;;;;;44.25;20.83;;;;;;;6.23;100.00;97195.50;4907859;29;20048;-79
2021/11/21 09:13:50;;;;;;;43.72;20.85;;;;;;;6.35;100.00;97181.59;4906106;29;20083;-80
2021/11/21 09:16:16;;;;;;;38.47;19.52;;;;;;;6.42;100.00;97187.38;4909042;29;20517;-81
2021/11/21 09:18:43;;;;;;;41.40;21.52;;;;;;;6.35;100.00;97186.97;4900677;29;20052;-77
2021/11/21 09:21:10;;;;;;;44.13;20.25;;;;;;;6.33;100.00;97187.25;4892682;29;20456;-81
2021/11/21 09:23:37;;;;;;;44.00;20.02;;;;;;;6.20;100.00;97185.34;4896285;29;20060;-81
2021/11/21 09:26:06;;;;;;;43.25;20.02;;;;;;;6.37;100.00;97185.59;4889624;29;20056;-80
2021/11/21 09:28:33;;;;;;;39.50;19.13;;;;;;;6.28;100.00;97180.09;4896863;29;20060;-81
2021/11/21 09:31:00;;;;;;;40.95;20.30;;;;;;;6.33;100.00;97173.81;4892789;29;20131;-80
2021/11/21 09:33:29;;;;;;;41.08;20.70;;;;;;;6.38;100.00;97175.59;4890927;29;20056;-81
2021/11/21 09:35:55;;;;;;;45.53;20.45;;;;;;;6.43;100.00;97173.59;4896356;29;20056;-80
2021/11/21 09:38:24;;;;;;;40.30;19.10;;;;;;;6.39;100.00;97178.00;4887167;29;20599;-80
2021/11/21 09:40:51;;;;;;;43.05;20.63;;;;;;;6.40;100.00;97168.81;4888629;29;20120;-81
2021/11/21 09:43:18;;;;;;;42.15;20.75;;;;;;;6.39;100.00;97163.75;4888915;29;20072;-81
2021/11/21 09:45:46;;;;;;;40.92;20.65;;;;;;;6.46;100.00;97162.25;4891036;29;20417;-81
2021/11/21 09:48:13;;;;;;;42.10;20.67;;;;;;;6.44;100.00;97163.66;4901093;29;20364;-81
2021/11/21 09:50:42;;;;;;;36.80;18.63;;;;;;;6.36;100.00;97164.34;4889632;29;20116;-80
2021/11/21 09:53:10;;;;;;;40.63;19.58;;;;;;;6.39;100.00;97161.88;4905698;29;20138;-79
2021/11/21 09:55:38;;;;;;;39.92;19.02;;;;;;;6.37;100.00;97165.97;4908206;29;20740;-80
2021/11/21 09:58:05;;;;;;;41.70;18.77;;;;;;;6.47;100.00;97160.38;4898500;29;20190;-80
2021/11/21 10:00:33;;;;;;;39.83;19.92;;;;;;;6.42;100.00;97160.47;4890907;29;20057;-79
2021/11/21 10:03:06;;;;;;;36.65;18.13;;;;;;;6.65;100.00;97159.47;4893462;29;20184;-79
2021/11/21 10:05:35;;;;;;;38.80;18.02;;;;;;;6.54;100.00;97158.88;4899916;29;20060;-82
2021/11/21 10:08:12;;;;;;;36.60;17.50;;;;;;;6.69;100.00;97158.56;4896240;29;20143;-82
2021/11/21 10:10:49;;;;;;;38.65;18.92;;;;;;;6.54;100.00;97153.50;4899972;29;20075;-82
2021/11/21 10:13:34;;;;;;;36.30;18.65;;;;;;;6.47;100.00;97147.72;4892714;29;20053;-82
2021/11/21 10:16:16;;;;;;;38.22;17.35;;;;;;;6.56;100.00;97145.13;4900021;29;20056;-78
2021/11/21 10:18:48;;;;;;;36.20;17.75;;;;;;;6.37;100.00;97157.91;4909464;29;20056;-81
2021/11/21 10:21:16;;;;;;;37.17;17.80;;;;;;;6.54;100.00;97155.38;4908373;29;20076;-79
2021/11/21 10:23:43;;;;;;;38.63;18.25;;;;;;;6.42;100.00;97139.78;4892010;29;20306;-80
2021/11/21 10:26:23;;;;;;;31.90;17.15;;;;;;;6.51;100.00;97145.22;4889256;29;20120;-79
2021/11/21 10:28:52;;;;;;;33.92;16.80;;;;;;;6.66;100.00;97150.28;4897276;29;20045;-80
2021/11/21 10:31:22;;;;;;;33.40;16.60;;;;;;;6.75;100.00;97140.41;4889290;29;20129;-78
2021/11/21 10:33:58;;;;;;;33.92;16.77;;;;;;;6.80;100.00;97141.13;4889431;29;20589;-80
2021/11/21 10:36:31;;;;;;;30.42;15.75;;;;;;;6.80;100.00;97149.19;4889359;29;20056;-81
2021/11/21 10:39:02;;;;;;;34.03;16.23;;;;;;;6.74;100.00;97145.00;4887471;29;20057;-79
2021/11/21 10:41:37;;;;;;;30.80;16.60;;;;;;;6.62;100.00;97142.03;4887875;29;20116;-79
2021/11/21 10:44:12;;;;;;;35.87;16.70;;;;;;;6.48;100.00;97145.84;4888754;29;20052;-83
2021/11/21 10:46:43;;;;;;;33.33;16.55;;;;;;;6.53;100.00;97143.81;4889158;29;20148;-78
2021/11/21 10:49:30;;;;;;;35.15;16.25;;;;;;;6.50;100.00;97146.34;4888257;29;20064;-78
2021/11/21 10:52:06;;;;;;;31.88;16.23;;;;;;;6.43;100.00;97143.25;4889097;29;20060;-78
2021/11/21 10:54:38;;;;;;;33.55;16.77;;;;;;;6.35;100.00;97135.91;4893350;29;20064;-79
2021/11/21 10:57:07;;;;;;;31.15;15.90;;;;;;;6.43;100.00;97141.34;4892642;29;20060;-81
2021/11/21 10:59:37;;;;;;;33.25;16.63;;;;;;;6.46;100.00;97134.56;4918055;29;20172;-78
2021/11/21 11:02:10;;;;;;;32.67;16.52;;;;;;;6.45;100.00;97131.13;4911541;29;20270;-81
2021/11/21 11:04:37;;;;;;;32.00;15.60;;;;;;;6.36;100.00;97126.72;4910151;29;20794;-81
2021/11/21 11:07:11;;;;;;;35.33;16.52;;;;;;;6.29;100.00;97129.81;4903483;29;20056;-80
2021/11/21 11:09:38;;;;;;;30.67;16.02;;;;;;;6.36;100.00;97135.59;4919301;29;20571;-82
2021/11/21 11:12:05;;;;;;;31.65;15.77;;;;;;;6.23;100.00;97120.25;4903487;29;20057;-80
2021/11/21 11:14:32;;;;;;;34.17;16.75;;;;;;;6.37;100.00;97128.31;4894047;29;20490;-80
2021/11/21 11:16:58;;;;;;;34.00;17.60;;;;;;;6.33;100.00;97120.06;4902456;29;20112;-80
2021/11/21 11:19:28;;;;;;;30.05;16.15;;;;;;;6.45;100.00;97119.56;4898776;29;20373;-80
2021/11/21 11:21:55;;;;;;;34.42;16.65;;;;;;;6.35;100.00;97117.09;4900190;29;20116;-83
2021/11/21 11:24:24;;;;;;;34.20;17.33;;;;;;;6.41;100.00;97113.19;4909989;29;20092;-82
2021/11/21 11:27:10;;;;;;;36.42;17.13;;;;;;;6.41;100.00;97122.03;4925815;29;20059;-80
2021/11/21 11:29:43;;;;;;;30.63;15.65;;;;;;;6.21;100.00;97119.78;4928259;29;20083;-80
2021/11/21 11:32:25;;;;;;;33.58;16.00;;;;;;;6.26;100.00;97120.47;4903099;29;20096;-80
2021/11/21 11:34:52;;;;;;;32.08;16.35;;;;;;;6.33;100.00;97105.81;4914591;29;20100;-80
2021/11/21 11:37:46;;;;;;;34.25;17.23;;;;;;;6.47;100.00;97109.28;4905008;29;20056;-80
2021/11/21 11:40:29;;;;;;;30.35;15.32;;;;;;;6.50;100.00;97114.88;4892510;29;20068;-78
2021/11/21 11:42:59;;;;;;;30.65;15.73;;;;;;;6.47;100.00;97114.66;4891416;29;20056;-80
2021/11/21 11:45:43;;;;;;;32.22;16.60;;;;;;;6.46;100.00;97119.25;4893363;29;20108;-81
2021/11/21 11:48:35;;;;;;;32.80;16.08;;;;;;;6.54;100.00;97106.97;4902359;29;20066;-79
2021/11/21 11:51:11;;;;;;;30.45;15.18;;;;;;;6.48;100.00;97095.53;4893517;29;20056;-78
2021/11/21 11:53:43;;;;;;;33.72;15.70;;;;;;;6.56;100.00;97094.81;4892495;29;20706;-79
2021/11/21 11:56:20;;;;;;;30.35;14.95;;;;;;;6.56;100.00;97096.72;4905271;29;20071;-78
2021/11/21 11:58:55;;;;;;;29.33;14.93;;;;;;;6.63;100.00;97097.13;4927797;29;20063;-80
2021/11/21 12:01:40;;;;;;;30.80;14.90;;;;;;;6.92;100.00;97094.81;4900764;29;20378;-80
2021/11/21 12:04:09;;;;;;;29.77;15.43;;;;;;;6.99;100.00;97087.16;4899336;29;20096;-76
2021/11/21 12:06:50;;;;;;;28.67;14.70;;;;;;;7.06;100.00;97100.16;4893881;29;20124;-78
2021/11/21 12:09:19;;;;;;;29.23;15.15;;;;;;;6.88;100.00;97099.25;4905156;29;20119;-78
2021/11/21 12:11:57;;;;;;;28.70;15.52;;;;;;;6.89;100.00;97090.84;4891756;29;20056;-80
2021/11/21 12:14:33;;;;;;;28.75;15.25;;;;;;;6.82;100.00;97095.06;4901165;29;20061;-79
2021/11/21 12:17:01;;;;;;;32.40;15.60;;;;;;;6.96;100.00;97100.41;4892501;29;20072;-80
2021/11/21 12:19:37;;;;;;;31.48;15.85;;;;;;;6.82;100.00;97089.69;4895827;29;20053;-81
2021/11/21 12:22:05;;;;;;;34.08;15.95;;;;;;;6.83;100.00;97102.84;4890634;29;20083;-79
2021/11/21 12:24:33;;;;;;;33.35;15.43;;;;;;;6.88;100.00;97093.84;4895398;29;20168;-79
2021/11/21 12:27:40;;;;;;;29.13;15.35;;;;;;;6.86;100.00;97088.00;4908500;29;20060;-81
2021/11/21 12:30:07;;;;;;;;;;;;;;;6.92;100.00;97094.81;4888343;29;20068;-79
2021/11/21 12:32:45;;;;;;;30.92;15.73;;;;;;;6.92;100.00;97065.22;4894524;29;19998;-82
2021/11/21 12:35:21;;;;;;;29.77;14.45;;;;;;;6.92;100.00;97083.28;4910546;29;20063;-80
2021/11/21 12:37:49;;;;;;;32.22;16.00;;;;;;;6.95;100.00;97070.00;4912159;29;20068;-80
2021/11/21 12:40:23;;;;;;;29.45;15.00;;;;;;;7.11;100.00;97090.09;4911140;29;20755;-81
2021/11/21 12:43:05;;;;;;;33.60;15.48;;;;;;;7.03;100.00;97092.69;4912596;29;20044;-84